Aktuální počasí v Česku a ve světě - METAR

Seznam meteostanic umístěných nejčasteji na letišti v ČR a ve světě

Vyhledat místa podle abecedy:
A B C D E F G H I J K L M N O P Q R S T U V W X Y Z

Filtrovat:

ID stanice:
a/nebo
Název místa (fulltext):
 
Místo (ID)Naposledy načteno 
Odense (EKOD) 01.10.2020 03:50 UTC Zobrazit METAR
EKOD 010350Z 14005KT 9000 BKN018 14/13 Q1011
Odesa (UKOO) 01.02.2018 08:00 UTC Zobrazit METAR
UKOO 010800Z CAVOK 07/04 Q1018 R16/190056 NOSIG
Osijek (LDOS) 01.10.2020 04:00 UTC Zobrazit METAR
LDOS 010400Z 28008KT CAVOK 14/09 Q1007
Oslo (ENGM) 01.10.2020 03:50 UTC Zobrazit METAR
ENGM 010350Z 04003KT 020V080 9999 SCT012 OVC048 10/09 Q1015 TEMPO BKN012
Ostend (EBOS) 01.10.2020 03:50 UTC Zobrazit METAR
EBOS 010350Z 15012KT 9999 -RA FEW012 BKN032 14/13 Q1000 TEMPO 4000 RA BKN012
Ostrava (LKMT) 01.10.2020 04:00 UTC Zobrazit METAR
LKMT 010400Z 35006KT 8000 -RA OVC004 12/11 Q1006 NOSIG
Ottawa (CYOW) 01.10.2020 04:00 UTC Zobrazit METAR
CYOW 010400Z 18010KT 15SM FEW020 BKN050 BKN100 11/10 A2960 RMK SC1SC5AC1 SLP026 DENSITY ALT 400FT
Ouagadougou (DFFD) 01.10.2020 00:56 UTC Zobrazit METAR
DFFD 010056Z 20009KT 9999 FEW020 27/24 Q1010 TEMPO TS FEW020 FEW030CB
Oulu (EFOU) 01.10.2020 03:50 UTC Zobrazit METAR
EFOU 010350Z AUTO 16004KT 9999 BKN040 10/10 Q1021
Reklama

Počasí na Váš email

Emaily jsou bez reklamy a bez spamu



Odhlásit newsletter




Další české internetové stránky (nejen) o počasí najdete v katalogu TOPlist - weby o počasí nebo vyhledejte na internetu, co jste tu na 🌞 Slunečnu ⛅ zatím nenašli:
⭐ Přidat Slunečno.cz do oblíbených | 🏠 Nastavit Slunečno.cz jako HOMEPAGE

⬆️ Posunout stránku nahoru ⬆️
Reklama